Crumpler, North Carolina
Current Conditions -  °F | °C
As of 7:55 AM on Thursday 23 Oct 2014 (Local Time) from KGEV Reporting Station
Clear Clear  
Wind Chill: 36°   Ceiling: Unl
Heat Index: 40°   Visibility: 10mi
Dew Point: 32°   Wind: 7mph
Humidity: 72%   Direction: 310°NW
Pressure: 30.1"   Gusts: 18mph
Location:  36.5°N, 81.39°W
Report Text: KGEV 231155Z AUTO 31006G16KT 270V340 10SM CLR 05/00 A3010 RMK AO2 T00460000 10052 20038
Loading
Personal Weather Stations






























Interactive Weather Map
Tropical Storm Tracking
New forecast layout! Learn more

10-Day Weather Forecast

Advertisements
Track Severe Weather on mobile